Time;durP1;ratioP1;P1;durP2;ratioP2;P2;SDS_P1;SDS_P2;PMS_P1;PMS_P2;Temp;Humidity;BMP_temperature;BMP_pressure;BME280_temperature;BME280_humidity;BME280_pressure;Samples;Min_cycle;Max_cycle;Signal;HPM_P1;HPM_P2
2022/09/23 00:03:15;;;;;;;8.35;5.00;;;2.50;99.90;;;;;;8260373;28;20110;-79
2022/09/23 00:07:16;;;;;;;8.23;4.82;;;2.40;99.90;;;;;;8259777;28;20033;-78
2022/09/23 00:11:23;;;;;;;8.95;5.22;;;2.40;99.90;;;;;;8261039;28;20026;-79
2022/09/23 00:15:25;;;;;;;8.05;4.97;;;2.40;99.90;;;;;;8257362;28;20046;-79
2022/09/23 00:19:25;;;;;;;6.63;4.22;;;2.40;99.90;;;;;;8259653;28;20023;-79
2022/09/23 00:23:26;;;;;;;7.90;4.72;;;2.40;99.90;;;;;;8257508;28;20679;-79
2022/09/23 00:27:27;;;;;;;7.13;4.57;;;2.50;99.90;;;;;;8235596;28;20093;-78
2022/09/23 00:31:28;;;;;;;9.00;5.22;;;2.40;99.90;;;;;;8246980;28;20076;-78
2022/09/23 00:35:28;;;;;;;8.65;5.25;;;2.40;99.90;;;;;;8259708;28;20026;-78
2022/09/23 00:39:29;;;;;;;6.82;4.10;;;2.40;99.90;;;;;;8260186;28;20602;-79
2022/09/23 00:43:48;;;;;;;9.32;4.78;;;2.30;99.90;;;;;;8260555;28;20080;-78
2022/09/23 00:48:00;;;;;;;7.80;4.80;;;2.20;99.90;;;;;;8259047;28;20029;-78
2022/09/23 00:52:06;;;;;;;8.55;4.53;;;2.20;99.90;;;;;;8260163;28;20027;-78
2022/09/23 00:56:09;;;;;;;10.18;4.55;;;2.10;99.90;;;;;;8259204;28;20059;-78
2022/09/23 01:00:11;;;;;;;6.00;4.05;;;2.20;99.90;;;;;;8257010;28;20370;-78
2022/09/23 01:04:13;;;;;;;6.47;4.10;;;2.20;99.90;;;;;;8260336;28;20026;-80
2022/09/23 01:08:14;;;;;;;7.15;4.10;;;2.10;99.90;;;;;;8258565;28;20133;-78
2022/09/23 01:12:37;;;;;;;8.13;4.95;;;2.00;99.90;;;;;;8265343;28;20110;-78
2022/09/23 01:16:48;;;;;;;10.07;4.65;;;1.90;99.90;;;;;;8265011;28;20023;-78
2022/09/23 01:21:26;;;;;;;6.68;4.03;;;1.80;99.90;;;;;;8266140;28;20105;-78
2022/09/23 01:25:39;;;;;;;6.55;4.45;;;1.90;99.90;;;;;;8264325;28;20045;-78
2022/09/23 01:29:58;;;;;;;7.53;4.20;;;1.80;99.90;;;;;;8260386;28;20461;-78
2022/09/23 01:34:28;;;;;;;7.40;4.57;;;1.70;99.90;;;;;;8265221;28;20061;-79
2022/09/23 01:38:34;;;;;;;9.75;4.68;;;1.80;99.90;;;;;;8265087;28;20049;-78
2022/09/23 01:42:51;;;;;;;8.98;4.40;;;1.70;99.90;;;;;;8264784;28;20092;-78
2022/09/23 01:46:57;;;;;;;7.80;4.68;;;1.60;99.90;;;;;;8257153;28;20021;-78
2022/09/23 01:51:15;;;;;;;6.60;4.38;;;1.50;99.90;;;;;;8264058;28;20093;-78
2022/09/23 01:55:46;;;;;;;6.75;4.05;;;1.50;99.90;;;;;;8266243;28;20041;-78
2022/09/23 01:59:50;;;;;;;5.78;3.88;;;1.40;99.90;;;;;;8260206;28;20056;-78
2022/09/23 02:04:10;;;;;;;5.55;3.83;;;1.20;99.90;;;;;;8257133;28;20579;-78
2022/09/23 02:08:16;;;;;;;8.75;3.78;;;1.10;99.90;;;;;;8262855;28;20363;-78
2022/09/23 02:12:20;;;;;;;5.97;4.10;;;1.10;99.90;;;;;;8263500;28;20026;-77
2022/09/23 02:16:28;;;;;;;7.30;4.95;;;1.10;99.90;;;;;;8262582;28;20077;-78
2022/09/23 02:20:33;;;;;;;6.53;4.40;;;1.10;99.90;;;;;;8263601;28;20033;-77
2022/09/23 02:24:37;;;;;;;7.82;4.18;;;1.10;99.90;;;;;;8262484;28;20363;-78
2022/09/23 02:29:17;;;;;;;8.85;3.83;;;1.00;99.90;;;;;;8260147;28;20024;-79
2022/09/23 02:33:32;;;;;;;5.75;3.65;;;0.90;99.90;;;;;;8255663;28;20058;-80
2022/09/23 02:37:46;;;;;;;5.88;4.18;;;0.70;99.90;;;;;;8263012;28;20026;-78
2022/09/23 02:42:00;;;;;;;8.55;5.03;;;0.70;99.90;;;;;;8263371;28;20026;-79
2022/09/23 02:46:05;;;;;;;6.88;4.93;;;0.80;99.90;;;;;;8264261;28;20360;-78
2022/09/23 02:50:08;;;;;;;8.85;4.68;;;0.80;99.90;;;;;;8263129;28;20406;-78
2022/09/23 02:54:15;;;;;;;9.32;4.65;;;0.90;99.90;;;;;;8263108;28;20101;-78
2022/09/23 02:58:16;;;;;;;8.98;4.47;;;0.90;99.90;;;;;;8262236;28;20034;-78
2022/09/23 03:02:54;;;;;;;7.68;4.53;;;0.80;99.90;;;;;;8262269;28;20026;-78
2022/09/23 03:07:09;;;;;;;9.18;4.90;;;0.80;99.90;;;;;;8255066;28;20052;-78
2022/09/23 03:11:12;;;;;;;9.43;4.90;;;0.80;99.90;;;;;;8262875;28;20034;-78
2022/09/23 03:15:41;;;;;;;7.80;4.65;;;0.70;99.90;;;;;;8258272;28;20562;-78
2022/09/23 03:19:56;;;;;;;7.72;4.00;;;0.60;99.90;;;;;;8259223;28;20058;-78
2022/09/23 03:24:01;;;;;;;6.75;4.57;;;0.60;99.90;;;;;;8258243;28;20027;-78
2022/09/23 03:28:02;;;;;;;6.85;4.53;;;0.60;99.90;;;;;;8256234;28;20025;-79
2022/09/23 03:32:06;;;;;;;6.20;4.43;;;0.50;99.90;;;;;;8258460;28;20080;-78
2022/09/23 03:40:34;;;;;;;7.75;4.47;;;0.40;99.90;;;;;;8259453;28;20054;-78
2022/09/23 03:44:39;;;;;;;7.55;4.40;;;0.40;99.90;;;;;;8254953;28;20034;-78
2022/09/23 03:48:39;;;;;;;10.20;4.80;;;0.40;99.90;;;;;;8259825;28;20113;-78
2022/09/23 03:52:40;;;;;;;7.10;4.70;;;0.30;99.90;;;;;;8262572;28;20509;-80
2022/09/23 03:56:41;;;;;;;7.72;4.82;;;0.30;99.90;;;;;;8260788;28;20057;-80
2022/09/23 04:00:42;;;;;;;6.85;4.53;;;0.30;99.90;;;;;;8260183;28;20026;-79
2022/09/23 04:04:43;;;;;;;6.93;3.92;;;0.30;99.90;;;;;;8260262;28;20018;-80
2022/09/23 04:08:43;;;;;;;6.85;4.43;;;0.30;99.90;;;;;;8260011;28;20587;-80
2022/09/23 04:12:44;;;;;;;7.40;4.45;;;0.40;99.90;;;;;;8259756;28;20030;-81
2022/09/23 04:16:45;;;;;;;9.10;4.80;;;0.40;99.90;;;;;;8258722;28;20121;-80
2022/09/23 04:20:46;;;;;;;10.63;4.57;;;0.30;99.90;;;;;;8256464;28;20034;-82
2022/09/23 04:24:48;;;;;;;9.27;4.53;;;0.30;99.90;;;;;;8252248;28;20035;-81
2022/09/23 04:28:48;;;;;;;7.82;4.88;;;0.20;99.90;;;;;;8256256;28;20106;-80
2022/09/23 04:32:51;;;;;;;15.10;4.80;;;0.10;99.90;;;;;;8259205;28;20438;-80
2022/09/23 04:36:51;;;;;;;7.18;4.60;;;0.10;99.90;;;;;;8252765;28;20708;-80
2022/09/23 04:40:52;;;;;;;7.07;4.22;;;0.00;99.90;;;;;;8257986;28;20113;-80
2022/09/23 04:44:52;;;;;;;10.70;5.05;;;0.00;99.90;;;;;;8259107;28;20026;-80
2022/09/23 04:48:53;;;;;;;12.45;6.38;;;0.00;99.90;;;;;;8256713;28;20076;-80
2022/09/23 04:52:54;;;;;;;16.95;7.60;;;0.00;99.90;;;;;;8252855;28;20044;-80
2022/09/23 04:56:54;;;;;;;18.40;6.80;;;0.00;99.90;;;;;;8259977;28;20084;-80
2022/09/23 05:00:56;;;;;;;14.05;6.32;;;0.00;99.90;;;;;;8263923;28;20019;-80
2022/09/23 05:04:57;;;;;;;12.27;6.38;;;-0.10;99.90;;;;;;8264800;28;20014;-81
2022/09/23 05:08:58;;;;;;;10.27;6.25;;;-0.10;99.90;;;;;;8259508;28;20089;-82
2022/09/23 05:12:58;;;;;;;11.75;6.38;;;-0.10;99.90;;;;;;8250889;28;20271;-81
2022/09/23 05:16:59;;;;;;;9.65;6.22;;;0.00;99.90;;;;;;8256794;28;20045;-80
2022/09/23 05:21:00;;;;;;;10.95;6.35;;;0.10;99.90;;;;;;8263297;28;20029;-81
2022/09/23 05:25:01;;;;;;;8.65;6.30;;;0.10;99.90;;;;;;8262968;28;20023;-81
2022/09/23 05:29:01;;;;;;;9.15;6.18;;;0.10;99.90;;;;;;8262631;28;20019;-80
2022/09/23 05:33:02;;;;;;;10.07;6.55;;;0.10;99.90;;;;;;8263082;28;20030;-81
2022/09/23 05:37:04;;;;;;;13.55;8.15;;;0.10;99.90;;;;;;8260852;28;20069;-81
2022/09/23 05:41:06;;;;;;;14.25;8.13;;;0.20;99.90;;;;;;8264219;28;20092;-81
2022/09/23 05:45:07;;;;;;;16.65;8.50;;;0.30;99.90;;;;;;8263652;28;20069;-81
2022/09/23 05:49:08;;;;;;;12.90;7.05;;;0.40;99.90;;;;;;8263541;28;20032;-81
2022/09/23 05:53:09;;;;;;;12.57;7.68;;;0.50;99.90;;;;;;8262903;28;20034;-81
2022/09/23 05:57:09;;;;;;;14.15;8.77;;;0.60;99.90;;;;;;8257347;28;20036;-81
2022/09/23 06:01:25;;;;;;;15.77;9.27;;;0.70;99.90;;;;;;8261706;28;20045;-81
2022/09/23 06:05:25;;;;;;;13.30;8.85;;;0.80;99.90;;;;;;8261415;28;20038;-79
2022/09/23 06:09:26;;;;;;;13.13;8.50;;;1.00;99.90;;;;;;8262944;28;20061;-79
2022/09/23 06:13:27;;;;;;;17.35;8.73;;;1.10;99.90;;;;;;8263189;28;20019;-79
2022/09/23 06:17:27;;;;;;;14.43;9.07;;;1.10;99.90;;;;;;8262455;28;20519;-79
2022/09/23 06:21:28;;;;;;;14.13;8.38;;;1.30;99.90;;;;;;8261817;28;20073;-79
2022/09/23 06:25:29;;;;;;;11.95;7.65;;;1.40;99.90;;;;;;8261351;28;20508;-79
2022/09/23 06:29:30;;;;;;;13.27;8.20;;;1.60;99.90;;;;;;8262795;28;20025;-79
2022/09/23 06:33:31;;;;;;;11.18;7.35;;;1.80;99.90;;;;;;8262646;28;20437;-79
2022/09/23 06:37:32;;;;;;;12.57;7.78;;;2.00;99.90;;;;;;8252598;28;20494;-79
2022/09/23 06:41:33;;;;;;;10.45;6.50;;;2.10;99.90;;;;;;8250036;28;20036;-78
2022/09/23 06:45:33;;;;;;;9.48;6.68;;;2.40;99.90;;;;;;8260976;28;20037;-78
2022/09/23 06:49:34;;;;;;;11.02;6.40;;;2.60;99.90;;;;;;8260734;28;20034;-79
2022/09/23 06:53:35;;;;;;;15.52;7.20;;;2.60;99.90;;;;;;8261044;28;20030;-79
2022/09/23 06:57:36;;;;;;;14.68;7.10;;;3.00;99.90;;;;;;8259537;28;20027;-78
2022/09/23 07:01:36;;;;;;;11.50;7.68;;;3.10;99.90;;;;;;8259440;28;20015;-79
2022/09/23 07:05:37;;;;;;;12.45;7.47;;;3.30;99.90;;;;;;8259344;28;20088;-79
2022/09/23 07:09:38;;;;;;;11.77;7.65;;;3.60;99.90;;;;;;8258699;28;20034;-79
2022/09/23 07:13:40;;;;;;;12.68;7.25;;;3.70;99.90;;;;;;8261356;28;20109;-79
2022/09/23 07:17:41;;;;;;;10.10;7.07;;;4.00;99.90;;;;;;8259819;28;20664;-78
2022/09/23 07:21:42;;;;;;;11.25;7.43;;;4.10;99.90;;;;;;8260163;28;20080;-79
2022/09/23 07:25:45;;;;;;;10.82;7.63;;;4.60;99.90;;;;;;8260995;28;20474;-79
2022/09/23 07:29:48;;;;;;;15.02;8.48;;;4.70;99.90;;;;;;8259869;28;20061;-79
2022/09/23 07:33:48;;;;;;;14.00;8.48;;;5.20;99.90;;;;;;8260561;28;20483;-78
2022/09/23 07:37:49;;;;;;;16.90;9.73;;;5.30;99.90;;;;;;8254826;28;20032;-79
2022/09/23 07:41:50;;;;;;;18.40;10.82;;;5.70;99.90;;;;;;8257236;28;20134;-78
2022/09/23 07:45:51;;;;;;;11.27;8.80;;;6.40;99.90;;;;;;8257422;28;20025;-78
2022/09/23 07:49:53;;;;;;;13.77;9.90;;;6.80;99.90;;;;;;8258053;28;20033;-78
2022/09/23 07:53:54;;;;;;;21.50;13.02;;;6.80;99.90;;;;;;8259219;28;20014;-78
2022/09/23 07:57:54;;;;;;;18.85;13.48;;;7.00;99.90;;;;;;8257859;28;20107;-78
2022/09/23 08:01:56;;;;;;;16.10;10.75;;;7.30;99.90;;;;;;8258490;28;20085;-79
2022/09/23 08:06:23;;;;;;;17.40;10.65;;;7.60;99.90;;;;;;8259066;28;20389;-78
2022/09/23 08:10:23;;;;;;;15.48;11.73;;;8.00;99.90;;;;;;8257494;28;20037;-78
2022/09/23 08:14:24;;;;;;;16.05;10.77;;;8.40;99.90;;;;;;8258527;28;20094;-78
2022/09/23 08:18:25;;;;;;;18.60;13.52;;;8.70;99.90;;;;;;8258737;28;20287;-78
2022/09/23 08:22:25;;;;;;;21.45;13.63;;;9.00;99.90;;;;;;8257653;28;20030;-79
2022/09/23 08:26:27;;;;;;;21.80;14.10;;;9.60;99.90;;;;;;8259026;28;20030;-79
2022/09/23 08:30:28;;;;;;;21.52;14.23;;;10.10;99.90;;;;;;8258230;28;20030;-79
2022/09/23 08:34:28;;;;;;;18.85;13.55;;;10.30;99.90;;;;;;8256924;28;20521;-79
2022/09/23 08:38:29;;;;;;;23.98;15.27;;;10.50;99.90;;;;;;8257102;28;20022;-79
2022/09/23 08:42:33;;;;;;;19.42;13.13;;;10.90;99.90;;;;;;8258974;28;20466;-79
2022/09/23 08:46:39;;;;;;;18.10;12.48;;;11.80;99.90;;;;;;8257371;28;20023;-80
2022/09/23 08:50:49;;;;;;;19.45;12.43;;;12.10;99.90;;;;;;8259001;28;20490;-79
2022/09/23 08:54:49;;;;;;;16.13;10.57;;;12.50;99.90;;;;;;8258410;28;20058;-79
2022/09/23 08:59:18;;;;;;;13.05;10.68;;;13.00;99.90;;;;;;8256246;28;20491;-79
2022/09/23 09:03:22;;;;;;;11.88;9.60;;;13.40;99.90;;;;;;8256989;28;20027;-79
2022/09/23 09:07:28;;;;;;;14.35;9.95;;;13.60;99.90;;;;;;8253769;28;20018;-79
2022/09/23 09:11:35;;;;;;;11.65;8.90;;;14.20;99.90;;;;;;8255947;28;20022;-79
2022/09/23 09:15:55;;;;;;;19.42;8.43;;;14.80;99.90;;;;;;8256107;28;20034;-79
2022/09/23 09:20:04;;;;;;;11.73;5.78;;;15.10;99.90;;;;;;8250722;28;20537;-79
2022/09/23 09:24:15;;;;;;;7.03;5.18;;;15.50;99.90;;;;;;8257480;28;20046;-79
2022/09/23 09:28:29;;;;;;;6.70;4.93;;;16.20;99.90;;;;;;8254782;28;20026;-80
2022/09/23 09:32:45;;;;;;;7.50;5.95;;;16.90;99.90;;;;;;8261137;28;20037;-80
2022/09/23 09:37:04;;;;;;;4.22;3.60;;;17.50;99.90;;;;;;8261183;28;20088;-79
2022/09/23 09:41:14;;;;;;;5.45;4.60;;;18.40;99.90;;;;;;8264649;28;20030;-80
2022/09/23 09:45:23;;;;;;;7.88;5.90;;;18.80;99.90;;;;;;8262309;28;20426;-80
2022/09/23 09:50:04;;;;;;;7.95;5.03;;;18.70;99.90;;;;;;8262609;28;20077;-80
2022/09/23 09:54:25;;;;;;;8.13;4.57;;;19.20;99.90;;;;;;8261596;28;20037;-81
2022/09/23 09:58:31;;;;;;;8.85;4.93;;;19.60;99.90;;;;;;8259274;28;20039;-80
2022/09/23 10:02:35;;;;;;;7.10;4.38;;;19.30;99.90;;;;;;8260088;28;20026;-80
2022/09/23 10:06:36;;;;;;;7.45;4.75;;;19.80;99.90;;;;;;8260490;28;20045;-80
2022/09/23 10:10:37;;;;;;;6.05;4.32;;;19.80;99.90;;;;;;8260120;28;20036;-80
2022/09/23 10:14:37;;;;;;;6.10;4.82;;;19.60;99.90;;;;;;8255632;28;20585;-80
2022/09/23 10:18:48;;;;;;;5.32;4.32;;;20.00;99.90;;;;;;8251334;28;20042;-80
2022/09/23 10:22:49;;;;;;;8.25;4.57;;;20.50;99.90;;;;;;8260939;28;20037;-80
2022/09/23 10:26:58;;;;;;;8.10;4.93;;;20.20;99.90;;;;;;8261530;28;20066;-80
2022/09/23 10:31:08;;;;;;;6.38;4.57;;;20.20;99.90;;;;;;8259157;28;20402;-80
2022/09/23 10:35:10;;;;;;;5.35;4.63;;;20.70;99.90;;;;;;8260601;28;20498;-80
2022/09/23 10:48:39;;;;;;;6.15;5.00;;;21.60;99.90;;;;;;8260245;28;20034;-80
2022/09/23 10:53:03;;;;;;;8.55;5.18;;;21.50;99.90;;;;;;8260416;28;20028;-81
2022/09/23 10:57:42;;;;;;;6.38;5.00;;;21.30;99.90;;;;;;8244106;28;21178;-80
2022/09/23 11:01:46;;;;;;;5.13;4.18;;;21.00;99.90;;;;;;8260940;28;20080;-80
2022/09/23 11:05:56;;;;;;;5.53;4.85;;;21.50;99.90;;;;;;8258934;28;20080;-80
2022/09/23 11:10:05;;;;;;;5.93;4.40;;;22.10;99.90;;;;;;8260224;28;20525;-80
2022/09/23 11:14:39;;;;;;;5.63;4.68;;;22.10;99.90;;;;;;8258949;28;20335;-81
2022/09/23 11:19:04;;;;;;;7.03;4.80;;;22.20;99.90;;;;;;8243750;28;20042;-80
2022/09/23 11:23:39;;;;;;;7.55;4.90;;;22.10;99.90;;;;;;8259863;28;20034;-80
2022/09/23 11:28:05;;;;;;;8.02;4.88;;;21.70;99.90;;;;;;8241783;28;20422;-80
2022/09/23 11:32:45;;;;;;;7.68;4.55;;;21.50;99.90;;;;;;8260948;28;20097;-81
2022/09/23 11:36:50;;;;;;;7.25;4.28;;;22.40;99.90;;;;;;8258803;28;20502;-80
2022/09/23 11:40:56;;;;;;;7.55;4.50;;;23.90;99.90;;;;;;8259283;28;20019;-80
2022/09/23 11:45:17;;;;;;;6.13;4.55;;;23.60;99.90;;;;;;8259072;28;20126;-80
2022/09/23 11:49:38;;;;;;;7.28;4.03;;;23.30;99.90;;;;;;8258756;28;20029;-80
2022/09/23 11:53:48;;;;;;;6.05;4.47;;;23.10;99.90;;;;;;8258766;28;20045;-80
2022/09/23 11:57:53;;;;;;;9.45;5.25;;;23.00;99.90;;;;;;8253119;28;20035;-80
2022/09/23 12:01:57;;;;;;;4.50;4.10;;;23.70;99.90;;;;;;8258400;28;20033;-81
2022/09/23 12:06:02;;;;;;;4.85;4.07;;;24.80;98.20;;;;;;8258048;28;20379;-82
2022/09/23 12:10:06;;;;;;;5.22;3.80;;;25.40;95.10;;;;;;8253976;28;20106;-80
2022/09/23 12:14:25;;;;;;;5.43;3.85;;;25.00;95.70;;;;;;8258982;28;20019;-80
2022/09/23 12:18:46;;;;;;;4.20;3.80;;;24.90;95.50;;;;;;8258795;28;20026;-81
2022/09/23 12:23:14;;;;;;;5.15;4.35;;;24.90;94.50;;;;;;8257719;28;20053;-81
2022/09/23 12:27:37;;;;;;;6.75;3.95;;;24.40;92.90;;;;;;8259186;28;20034;-80
2022/09/23 12:31:39;;;;;;;6.95;4.10;;;24.70;92.40;;;;;;8257639;28;20029;-80
2022/09/23 12:35:44;;;;;;;10.20;4.05;;;25.30;93.30;;;;;;8257243;28;20096;-80
2022/09/23 12:39:45;;;;;;;7.85;3.90;;;26.00;90.90;;;;;;8257067;28;20029;-80
2022/09/23 12:43:54;;;;;;;5.35;3.60;;;26.30;90.50;;;;;;8257475;28;20034;-80
2022/09/23 12:47:55;;;;;;;5.75;3.95;;;25.70;92.70;;;;;;8253286;28;20014;-80
2022/09/23 12:52:15;;;;;;;7.40;3.65;;;25.90;91.10;;;;;;8257920;28;20137;-80
2022/09/23 12:56:22;;;;;;;7.10;3.70;;;27.00;87.90;;;;;;8258010;28;20081;-80
2022/09/23 13:00:24;;;;;;;5.93;3.20;;;25.80;85.60;;;;;;8256228;28;20045;-80
2022/09/23 13:09:36;;;;;;;3.00;2.47;;;27.10;81.00;;;;;;8261403;28;20034;-82
2022/09/23 13:13:40;;;;;;;4.03;2.35;;;28.70;76.80;;;;;;8265206;28;20085;-80
2022/09/23 13:17:41;;;;;;;3.53;2.50;;;28.00;73.80;;;;;;8263538;28;20033;-80
2022/09/23 13:21:41;;;;;;;3.78;1.90;;;26.70;72.70;;;;;;8264131;28;20105;-81
2022/09/23 13:25:43;;;;;;;2.88;2.15;;;25.90;74.50;;;;;;8264864;28;20064;-81
2022/09/23 13:29:55;;;;;;;4.47;1.75;;;26.50;71.70;;;;;;8263308;28;20038;-81
2022/09/23 13:34:03;;;;;;;3.85;2.00;;;27.20;68.30;;;;;;8257842;28;20375;-80
2022/09/23 13:38:16;;;;;;;2.65;2.00;;;27.80;65.60;;;;;;8264026;28;20478;-80
2022/09/23 13:42:27;;;;;;;2.40;1.63;;;27.30;68.30;;;;;;8260867;28;20061;-83
2022/09/23 13:46:36;;;;;;;31.52;7.60;;;26.40;64.70;;;;;;8262298;28;20026;-80
2022/09/23 13:50:39;;;;;;;2.47;1.55;;;25.80;68.50;;;;;;8262842;28;20114;-81
2022/09/23 13:54:48;;;;;;;5.47;2.00;;;25.10;70.50;;;;;;8262526;28;20453;-80
2022/09/23 13:58:48;;;;;;;2.75;1.75;;;25.30;69.90;;;;;;8261523;28;20018;-80
2022/09/23 14:02:49;;;;;;;12.32;3.83;;;25.50;69.50;;;;;;8261942;28;20030;-81
2022/09/23 14:06:50;;;;;;;3.20;2.33;;;26.50;69.70;;;;;;8257359;28;20574;-82
2022/09/23 14:10:52;;;;;;;7.43;2.28;;;26.80;67.80;;;;;;8262260;28;20027;-80
2022/09/23 14:14:53;;;;;;;4.53;2.22;;;26.30;69.50;;;;;;8262255;28;20037;-82
2022/09/23 14:18:59;;;;;;;1.90;1.65;;;26.30;68.00;;;;;;8260278;28;20022;-80
2022/09/23 14:23:09;;;;;;;3.50;1.90;;;26.90;69.40;;;;;;8261617;28;20023;-81
2022/09/23 14:27:14;;;;;;;3.25;2.10;;;28.50;65.20;;;;;;8261027;28;20027;-80
2022/09/23 14:31:15;;;;;;;3.35;2.10;;;27.50;64.70;;;;;;8260406;28;20514;-81
2022/09/23 14:35:23;;;;;;;4.43;2.58;;;28.40;64.70;;;;;;8258562;28;20045;-81
2022/09/23 14:39:25;;;;;;;2.42;2.10;;;28.40;64.70;;;;;;8257209;28;20081;-81
2022/09/23 14:43:27;;;;;;;2.92;2.13;;;27.60;65.00;;;;;;8261403;28;20502;-81
2022/09/23 14:47:28;;;;;;;3.33;2.20;;;26.80;67.00;;;;;;8259422;28;20022;-81
2022/09/23 14:51:40;;;;;;;2.30;2.00;;;25.30;70.60;;;;;;8261988;28;20105;-80
2022/09/23 14:55:41;;;;;;;3.40;2.03;;;23.60;76.80;;;;;;8259610;28;20022;-80
2022/09/23 14:59:50;;;;;;;4.38;2.10;;;22.90;77.80;;;;;;8251587;28;20466;-80
2022/09/23 15:03:51;;;;;;;2.40;1.80;;;22.50;80.20;;;;;;8255624;28;20026;-80
2022/09/23 15:07:56;;;;;;;2.42;2.05;;;21.80;83.30;;;;;;8256420;28;20027;-80
2022/09/23 15:11:59;;;;;;;2.85;2.15;;;21.40;82.50;;;;;;8257320;28;20030;-79
2022/09/23 15:16:00;;;;;;;4.18;2.20;;;21.00;85.60;;;;;;8252098;28;20038;-79
2022/09/23 15:20:21;;;;;;;3.45;2.20;;;20.80;88.10;;;;;;8257463;28;20060;-80
2022/09/23 15:24:33;;;;;;;;;;;20.50;90.20;;;;;;8253471;28;20026;-79
2022/09/23 15:28:33;;;;;;;;;;;20.20;91.50;;;;;;8256094;28;19910;-80
2022/09/23 15:32:34;;;;;;;6.73;2.33;;;19.80;92.40;;;;;;8256787;28;19959;-79
2022/09/23 15:36:37;;;;;;;4.95;2.30;;;19.70;94.00;;;;;;8253731;28;20508;-79
2022/09/23 15:40:39;;;;;;;11.45;2.45;;;19.40;92.80;;;;;;8255633;28;20033;-79
2022/09/23 15:44:39;;;;;;;4.82;2.53;;;19.20;96.50;;;;;;8257424;28;20595;-80
2022/09/23 15:48:42;;;;;;;4.40;2.30;;;18.70;98.60;;;;;;8255810;28;20055;-79
2022/09/23 15:52:44;;;;;;;8.15;2.33;;;18.40;99.90;;;;;;8257575;28;20050;-79
2022/09/23 15:56:45;;;;;;;5.05;2.40;;;18.10;99.90;;;;;;8255499;28;20023;-80
2022/09/23 16:00:51;;;;;;;12.25;2.53;;;17.70;99.90;;;;;;8258126;28;20048;-80
2022/09/23 16:04:52;;;;;;;5.28;2.67;;;17.50;99.90;;;;;;8260359;28;20029;-79
2022/09/23 16:08:53;;;;;;;5.68;2.83;;;17.30;99.90;;;;;;8260044;28;20037;-79
2022/09/23 16:12:56;;;;;;;3.53;2.70;;;17.20;99.90;;;;;;8258775;28;20398;-79
2022/09/23 16:16:57;;;;;;;5.70;2.65;;;17.10;99.90;;;;;;8258231;28;20113;-79
2022/09/23 16:20:58;;;;;;;4.50;2.88;;;16.80;99.90;;;;;;8259045;28;20026;-79
2022/09/23 16:24:58;;;;;;;10.45;2.92;;;16.50;99.90;;;;;;8258776;28;20540;-79
2022/09/23 16:29:00;;;;;;;4.60;2.80;;;16.20;99.90;;;;;;8258921;28;20018;-79
2022/09/23 16:33:01;;;;;;;5.35;2.88;;;16.00;99.90;;;;;;8259391;28;20129;-79
2022/09/23 16:37:03;;;;;;;6.28;3.05;;;15.80;99.90;;;;;;8258506;28;20022;-79
2022/09/23 16:41:04;;;;;;;8.88;3.45;;;15.60;99.90;;;;;;8262308;28;20034;-79
2022/09/23 16:45:05;;;;;;;3.28;2.97;;;15.60;99.90;;;;;;8265663;28;21438;-79
2022/09/23 16:49:05;;;;;;;5.93;3.03;;;15.30;99.90;;;;;;8265270;28;20057;-79
2022/09/23 16:53:06;;;;;;;6.47;3.25;;;15.10;99.90;;;;;;8265593;28;20026;-79
2022/09/23 16:57:08;;;;;;;6.38;3.40;;;14.90;99.90;;;;;;8263993;28;20026;-79
2022/09/23 17:05:36;;;;;;;5.15;3.17;;;14.50;99.90;;;;;;8263414;28;20254;-79
2022/09/23 17:09:37;;;;;;;5.03;3.40;;;14.30;99.90;;;;;;8260901;28;20023;-79
2022/09/23 17:13:41;;;;;;;10.40;4.15;;;13.80;99.90;;;;;;8264640;28;20065;-78
2022/09/23 17:17:42;;;;;;;8.15;4.07;;;13.40;99.90;;;;;;8264142;28;20121;-79
2022/09/23 17:21:42;;;;;;;8.13;3.58;;;13.10;99.90;;;;;;8260808;28;20018;-80
2022/09/23 17:25:47;;;;;;;7.03;3.80;;;12.90;99.90;;;;;;8258488;28;20061;-79
2022/09/23 17:29:47;;;;;;;7.50;4.47;;;12.90;99.90;;;;;;8260753;28;20109;-81
2022/09/23 17:33:48;;;;;;;12.25;4.60;;;13.00;99.90;;;;;;8261492;28;20034;-80
2022/09/23 17:37:49;;;;;;;8.38;5.20;;;13.10;99.90;;;;;;8256672;28;20387;-79
2022/09/23 17:41:50;;;;;;;6.45;4.82;;;13.00;99.90;;;;;;8259463;28;20022;-79
2022/09/23 17:45:53;;;;;;;8.02;4.78;;;12.80;99.90;;;;;;8260816;28;20185;-79
2022/09/23 17:49:54;;;;;;;9.82;5.35;;;12.60;99.90;;;;;;8255031;28;20026;-78
2022/09/23 17:53:56;;;;;;;6.95;4.95;;;12.30;99.90;;;;;;8260150;28;20026;-79
2022/09/23 17:57:56;;;;;;;8.20;5.25;;;12.00;99.90;;;;;;8261691;28;20026;-79
2022/09/23 18:01:57;;;;;;;7.10;5.18;;;11.90;99.90;;;;;;8260991;28;20041;-79
2022/09/23 18:06:11;;;;;;;11.50;5.68;;;11.80;99.90;;;;;;8260402;28;20030;-79
2022/09/23 18:10:11;;;;;;;9.38;6.32;;;11.90;99.90;;;;;;8260764;28;20030;-79
2022/09/23 18:14:14;;;;;;;12.35;7.07;;;11.80;99.90;;;;;;8260103;28;20069;-79
2022/09/23 18:18:14;;;;;;;9.20;5.60;;;11.80;99.90;;;;;;8259585;28;20109;-79
2022/09/23 18:22:15;;;;;;;7.35;4.57;;;11.60;99.90;;;;;;8252753;28;20034;-79
2022/09/23 18:26:18;;;;;;;10.80;4.78;;;11.50;99.90;;;;;;8258530;28;20026;-79
2022/09/23 18:30:18;;;;;;;6.00;4.13;;;11.20;99.90;;;;;;8260602;28;20021;-79
2022/09/23 18:34:19;;;;;;;7.78;4.25;;;11.00;99.90;;;;;;8259464;28;20522;-79
2022/09/23 18:38:19;;;;;;;6.25;4.50;;;10.90;99.90;;;;;;8257157;28;20034;-78
2022/09/23 18:42:20;;;;;;;5.72;4.40;;;10.70;99.90;;;;;;8260468;28;20050;-78
2022/09/23 18:46:25;;;;;;;10.10;4.82;;;10.70;99.90;;;;;;8259354;28;20109;-79
2022/09/23 18:50:38;;;;;;;7.32;5.05;;;10.50;99.90;;;;;;8259600;28;20129;-79
2022/09/23 18:54:38;;;;;;;11.93;7.18;;;10.60;99.90;;;;;;8258678;28;20090;-79
2022/09/23 18:58:47;;;;;;;10.18;6.05;;;10.80;99.90;;;;;;8258043;28;20030;-79
2022/09/23 19:02:47;;;;;;;8.43;5.85;;;10.80;99.90;;;;;;8257569;28;20030;-79
2022/09/23 19:06:48;;;;;;;7.05;5.38;;;10.90;99.90;;;;;;8255622;28;20113;-79
2022/09/23 19:10:56;;;;;;;7.45;5.72;;;10.80;99.90;;;;;;8258325;28;20439;-80
2022/09/23 19:14:57;;;;;;;9.73;5.47;;;10.80;99.90;;;;;;8256937;28;20619;-78
2022/09/23 19:18:58;;;;;;;9.32;5.32;;;10.70;99.90;;;;;;8257196;28;20026;-79
2022/09/23 19:22:59;;;;;;;8.98;6.45;;;10.60;99.90;;;;;;8257197;28;20026;-80
2022/09/23 19:27:02;;;;;;;9.45;7.18;;;10.50;99.90;;;;;;8257190;28;20513;-79
2022/09/23 19:31:11;;;;;;;9.00;5.80;;;10.40;99.90;;;;;;8259218;28;20026;-79
2022/09/23 19:35:14;;;;;;;14.90;6.05;;;10.40;99.90;;;;;;8257848;28;20030;-78
2022/09/23 19:39:21;;;;;;;8.20;5.22;;;10.60;99.90;;;;;;8255799;28;20022;-78
2022/09/23 19:43:21;;;;;;;9.07;5.80;;;10.30;99.90;;;;;;8258377;28;20077;-79
2022/09/23 19:47:22;;;;;;;8.93;6.00;;;10.10;99.90;;;;;;8253668;28;20786;-78
2022/09/23 19:51:23;;;;;;;8.10;5.82;;;10.00;99.90;;;;;;8258134;28;20026;-79
2022/09/23 19:55:23;;;;;;;6.95;5.63;;;10.00;99.90;;;;;;8257457;28;20033;-78
2022/09/23 19:59:25;;;;;;;9.13;5.50;;;9.90;99.90;;;;;;8255373;28;20061;-79
2022/09/23 20:03:26;;;;;;;8.57;6.68;;;9.70;99.90;;;;;;8255558;28;20018;-79
2022/09/23 20:07:26;;;;;;;18.38;9.63;;;9.60;99.90;;;;;;8255746;28;20133;-78
2022/09/23 20:11:28;;;;;;;14.13;9.23;;;9.60;99.90;;;;;;8256394;28;20084;-78
2022/09/23 20:15:28;;;;;;;16.17;8.93;;;9.60;99.90;;;;;;8255125;28;20030;-79
2022/09/23 20:19:29;;;;;;;9.25;7.22;;;9.70;99.90;;;;;;8255673;28;20034;-79
2022/09/23 20:23:30;;;;;;;14.77;8.20;;;9.80;99.90;;;;;;8255647;28;20034;-79
2022/09/23 20:27:32;;;;;;;10.98;7.40;;;9.70;99.90;;;;;;8256532;28;20640;-79
2022/09/23 20:31:33;;;;;;;17.13;8.90;;;9.70;99.90;;;;;;8257195;28;20101;-79
2022/09/23 20:35:33;;;;;;;20.33;10.32;;;9.70;99.90;;;;;;8256107;28;20030;-78
2022/09/23 20:39:34;;;;;;;16.60;9.80;;;9.60;99.90;;;;;;8253259;28;20028;-79
2022/09/23 20:43:35;;;;;;;16.33;9.38;;;9.50;99.90;;;;;;8256401;28;20526;-78
2022/09/23 20:47:35;;;;;;;10.38;7.50;;;9.60;99.90;;;;;;8255511;28;20033;-78
2022/09/23 20:51:36;;;;;;;15.68;7.60;;;9.70;99.90;;;;;;8255736;28;20661;-78
2022/09/23 20:55:37;;;;;;;10.77;7.50;;;9.80;99.90;;;;;;8256027;28;20234;-78
2022/09/23 20:59:39;;;;;;;11.77;7.47;;;9.60;99.90;;;;;;8255098;28;20528;-79
2022/09/23 21:03:42;;;;;;;15.55;7.80;;;9.50;99.90;;;;;;8256610;28;20022;-79
2022/09/23 21:07:45;;;;;;;11.82;7.43;;;9.50;99.90;;;;;;8252048;28;20022;-78
2022/09/23 21:11:46;;;;;;;10.00;5.88;;;9.50;99.90;;;;;;8256106;28;20034;-78
2022/09/23 21:15:46;;;;;;;12.32;6.80;;;9.40;99.90;;;;;;8254373;28;20045;-79
2022/09/23 21:19:47;;;;;;;9.85;6.28;;;9.50;99.90;;;;;;8254832;28;20147;-78
2022/09/23 21:23:48;;;;;;;10.50;6.65;;;9.50;99.90;;;;;;8254777;28;20113;-79
2022/09/23 21:27:52;;;;;;;8.77;6.30;;;9.50;99.90;;;;;;8257512;28;20509;-77
2022/09/23 21:31:52;;;;;;;12.38;6.25;;;9.40;99.90;;;;;;8257702;28;20589;-79
2022/09/23 21:35:54;;;;;;;11.60;6.60;;;9.30;99.90;;;;;;8258764;28;20030;-79
2022/09/23 21:44:14;;;;;;;9.02;6.82;;;9.40;99.90;;;;;;8265227;28;20513;-79
2022/09/23 21:48:15;;;;;;;12.15;6.63;;;9.40;99.90;;;;;;8263798;28;20026;-79